»·PEaware :: UAL1563 KIAH-KDEN

UAL1563 :: KIAH-KDEN

FLIGHT INFORMATION

Flight Status: Arrived
Operator:
United Airlines
More flights by this operator :: More flights under this callsign
Pilot: Colin A. (19898)
Aircraft: BOEING 737-500
(B735)
More flights by this aircraft type
Origin: KIAH G Bush Intercontinental/Houst
United States
Destination: KDEN Denver Intl
United States
More flights between these airports :: More routes between these airports
Route: +STYCK6 DOLEY FUZ SPS HALEN BOSSS2
File this flight plan on PilotEdge
Remarks: RMK / SIMBRIEF
Altitude:
(Current/Filed)
32,000ft
Speed:
(Current/Filed)
445kts
Departed: 19-Feb-19 09:27 PM
Arrived: 19-Feb-19 11:18 PM
Distance/Time
Traveled:
749nm/1:51
Distance/Time
To Go:
Arrived

Flight Plot

Page will automatically refresh every two minutes.


Map Options




Map Legend


Flown Route
Filed Route
Departure Airport
Arrival Airport
Navaid (VOR, NDB)
Fix

Horizontal Profiles

Position Reports

Time Latitude Longitude Heading Altitude Ground
Speed
19-Feb-19 21:07 29.985345 -95.340178 358 104ft 0kts
19-Feb-19 21:08 29.985345 -95.340178 358 104ft 0kts
19-Feb-19 21:09 29.985345 -95.340178 358 104ft 0kts
19-Feb-19 21:10 29.985345 -95.340178 358 104ft 0kts
19-Feb-19 21:11 29.985345 -95.340178 358 104ft 0kts
19-Feb-19 21:12 29.985345 -95.340178 358 104ft 0kts
19-Feb-19 21:13 29.985108 -95.340175 0 104ft 2kts
19-Feb-19 21:14 29.984460 -95.340228 7 104ft 2kts
19-Feb-19 21:15 29.983814 -95.340288 357 104ft 2kts
19-Feb-19 21:16 29.983252 -95.340026 300 104ft 2kts
19-Feb-19 21:17 29.983224 -95.339970 300 104ft 0kts
19-Feb-19 21:18 29.983377 -95.340261 302 104ft 7kts
19-Feb-19 21:19 29.983763 -95.346111 270 104ft 26kts
19-Feb-19 21:20 29.982862 -95.352307 71 104ft 12kts
19-Feb-19 21:21 29.978757 -95.348843 152 104ft 29kts
19-Feb-19 21:22 29.970304 -95.343612 153 104ft 33kts
19-Feb-19 21:23 29.963322 -95.339390 152 104ft 23kts
19-Feb-19 21:24 29.959363 -95.339045 241 104ft 9kts
19-Feb-19 21:25 29.959126 -95.339559 246 104ft 8kts
19-Feb-19 21:26 29.969684 -95.346703 332 105ft 140kts
19-Feb-19 21:27 30.019331 -95.362689 356 1793ft 218kts
19-Feb-19 21:28 30.077214 -95.393671 333 3824ft 242kts
19-Feb-19 21:29 30.141663 -95.432589 331 5680ft 288kts
19-Feb-19 21:30 30.216689 -95.473375 329 8379ft 304kts
19-Feb-19 21:31 30.294247 -95.516514 327 10617ft 330kts
19-Feb-19 21:32 30.385090 -95.567462 326 12072ft 384kts
19-Feb-19 21:33 30.483318 -95.622751 326 14527ft 402kts
19-Feb-19 21:34 30.586428 -95.679726 326 16789ft 419kts
19-Feb-19 21:35 30.694190 -95.737045 326 18827ft 434kts
19-Feb-19 21:36 30.806238 -95.797039 326 20669ft 449kts
19-Feb-19 21:37 30.921639 -95.858991 325 22334ft 464kts
19-Feb-19 21:38 31.040520 -95.923023 325 23800ft 477kts
19-Feb-19 21:39 31.164830 -95.983947 332 25149ft 498kts
19-Feb-19 21:40 31.297378 -96.035219 331 26534ft 503kts
19-Feb-19 21:41 31.430148 -96.086761 331 27980ft 503kts
19-Feb-19 21:42 31.562684 -96.138404 330 29331ft 503kts
19-Feb-19 21:43 31.695702 -96.190407 330 30586ft 502kts
19-Feb-19 21:44 31.827978 -96.242282 329 31708ft 502kts
19-Feb-19 21:45 31.961095 -96.294653 329 32089ft 501kts
19-Feb-19 21:46 32.093213 -96.346766 329 32098ft 501kts
19-Feb-19 21:47 32.216353 -96.410907 302 32109ft 450kts
19-Feb-19 21:48 32.305760 -96.513946 300 32108ft 448kts
19-Feb-19 21:49 32.395664 -96.616517 300 32041ft 447kts
19-Feb-19 21:50 32.485356 -96.718392 301 32037ft 451kts
19-Feb-19 21:51 32.576004 -96.821289 300 32034ft 450kts
19-Feb-19 21:52 32.653901 -96.909923 300 32023ft 450kts
19-Feb-19 21:53 32.738327 -97.006205 300 32027ft 450kts
19-Feb-19 21:54 32.828492 -97.109333 300 32032ft 450kts
19-Feb-19 21:55 32.917696 -97.213599 297 32026ft 443kts
19-Feb-19 21:56 33.001667 -97.320743 297 32027ft 443kts
19-Feb-19 21:57 33.086202 -97.428611 297 32030ft 447kts
19-Feb-19 21:58 33.170992 -97.536570 297 32024ft 446kts
19-Feb-19 21:59 33.255818 -97.644930 297 32020ft 445kts
19-Feb-19 22:00 33.340418 -97.753402 297 32028ft 449kts
19-Feb-19 22:01 33.425438 -97.862629 297 32023ft 447kts
19-Feb-19 22:02 33.510172 -97.971879 297 32020ft 447kts
19-Feb-19 22:03 33.594755 -98.081277 297 32022ft 447kts
19-Feb-19 22:04 33.679366 -98.191047 297 32029ft 447kts
19-Feb-19 22:05 33.763578 -98.300642 297 32042ft 447kts
19-Feb-19 22:06 33.847961 -98.410808 297 32053ft 447kts
19-Feb-19 22:07 33.932201 -98.521081 297 32050ft 444kts
19-Feb-19 22:08 34.022934 -98.625253 310 32035ft 470kts
19-Feb-19 22:09 34.129886 -98.717580 310 32024ft 471kts
19-Feb-19 22:10 34.232001 -98.806316 310 32015ft 470kts
19-Feb-19 22:11 34.327501 -98.889691 310 32009ft 468kts
19-Feb-19 22:12 34.422255 -98.972702 311 32001ft 465kts
19-Feb-19 22:13 34.499844 -99.040878 311 32005ft 465kts
19-Feb-19 22:14 34.600995 -99.130004 311 32013ft 465kts
19-Feb-19 22:15 34.705486 -99.222354 311 32018ft 465kts
19-Feb-19 22:16 34.810505 -99.315520 310 32018ft 465kts
19-Feb-19 22:17 34.915516 -99.408862 310 32043ft 469kts
19-Feb-19 22:18 35.020544 -99.502639 312 32036ft 468kts
19-Feb-19 22:19 35.125917 -99.596907 311 32022ft 467kts
19-Feb-19 22:20 35.230472 -99.690712 310 31999ft 466kts
19-Feb-19 22:21 35.335211 -99.785183 311 31995ft 468kts
19-Feb-19 22:23 35.440053 -99.880019 312 31984ft 465kts
19-Feb-19 22:24 35.543949 -99.974209 312 31964ft 463kts
19-Feb-19 22:25 35.648217 -100.069165 311 31969ft 464kts
19-Feb-19 22:26 35.751982 -100.163943 314 31955ft 468kts
19-Feb-19 22:27 35.855686 -100.258958 312 31960ft 466kts
19-Feb-19 22:28 35.959339 -100.354187 312 31959ft 462kts
19-Feb-19 22:29 36.062316 -100.449221 312 31959ft 465kts
19-Feb-19 22:30 36.165610 -100.544793 312 31950ft 463kts
19-Feb-19 22:31 36.268652 -100.640475 312 31937ft 463kts
19-Feb-19 22:32 36.371661 -100.736450 312 31917ft 463kts
19-Feb-19 22:33 36.474708 -100.832786 312 31910ft 463kts
19-Feb-19 22:34 36.577918 -100.929638 312 31911ft 465kts
19-Feb-19 22:35 36.681028 -101.026660 312 31908ft 464kts
19-Feb-19 22:36 36.784072 -101.123990 312 31897ft 464kts
19-Feb-19 22:37 36.886697 -101.221258 312 31897ft 464kts
19-Feb-19 22:38 36.989887 -101.319417 312 31892ft 465kts
19-Feb-19 22:39 37.093018 -101.417842 312 31884ft 465kts
19-Feb-19 22:40 37.195807 -101.516293 312 31879ft 465kts
19-Feb-19 22:41 37.298757 -101.615260 312 31871ft 466kts
19-Feb-19 22:42 37.401633 -101.714484 312 31866ft 466kts
19-Feb-19 22:43 37.504557 -101.814119 312 31860ft 466kts
19-Feb-19 22:44 37.607371 -101.913998 313 31856ft 466kts
19-Feb-19 22:44 37.692968 -101.997441 313 31843ft 467kts
19-Feb-19 22:45 37.795789 -102.097996 313 31840ft 467kts
19-Feb-19 22:47 37.902450 -102.228634 304 31830ft 457kts
19-Feb-19 22:48 37.989235 -102.346611 303 31815ft 456kts
19-Feb-19 22:48 38.061559 -102.444893 304 31802ft 456kts
19-Feb-19 22:49 38.147976 -102.563075 303 31806ft 455kts
19-Feb-19 22:50 38.233986 -102.680947 303 31793ft 455kts
19-Feb-19 22:51 38.320233 -102.799546 303 31784ft 456kts
19-Feb-19 22:52 38.405959 -102.918163 304 31783ft 453kts
19-Feb-19 22:53 38.491312 -103.036412 304 31777ft 454kts
19-Feb-19 22:54 38.576769 -103.155246 305 31777ft 452kts
19-Feb-19 22:55 38.661150 -103.273179 303 31780ft 450kts
19-Feb-19 22:56 38.745104 -103.390998 303 31692ft 450kts
19-Feb-19 22:57 38.828778 -103.508608 306 28918ft 442kts
19-Feb-19 22:58 38.910979 -103.624895 307 25460ft 437kts
19-Feb-19 22:59 38.991125 -103.738852 308 22742ft 422kts
19-Feb-19 23:00 39.068364 -103.848929 308 20272ft 406kts
19-Feb-19 23:01 39.142382 -103.954708 309 18740ft 397kts
19-Feb-19 23:02 39.208606 -104.063388 297 18553ft 365kts
19-Feb-19 23:03 39.266361 -104.170345 311 15600ft 364kts
19-Feb-19 23:04 39.307146 -104.279810 281 13773ft 326kts
19-Feb-19 23:05 39.324928 -104.385307 284 13600ft 272kts
19-Feb-19 23:06 39.342867 -104.476108 285 13698ft 240kts
19-Feb-19 23:07 39.362621 -104.556107 283 13716ft 238kts
19-Feb-19 23:08 39.395946 -104.621550 352 13283ft 241kts
19-Feb-19 23:09 39.462530 -104.629176 351 12313ft 236kts
19-Feb-19 23:10 39.526894 -104.640355 349 11642ft 233kts
19-Feb-19 23:11 39.591855 -104.654281 348 10330ft 241kts
19-Feb-19 23:12 39.657504 -104.668276 5 8181ft 231kts
19-Feb-19 23:13 39.718484 -104.660312 0 7748ft 188kts
19-Feb-19 23:14 39.762206 -104.661871 358 6508ft 134kts
19-Feb-19 23:15 39.801635 -104.660704 356 5979ft 145kts
19-Feb-19 23:16 39.841179 -104.660353 359 5438ft 100kts
19-Feb-19 23:17 39.850236 -104.662295 348 5438ft 9kts
19-Feb-19 23:18 39.856305 -104.662341 358 5438ft 28kts
19-Feb-19 23:19 39.856634 -104.666019 268 5438ft 21kts
19-Feb-19 23:20 39.856800 -104.673627 293 5438ft 11kts
19-Feb-19 23:21 39.858255 -104.674624 1 5438ft 0kts
19-Feb-19 23:22 39.858255 -104.674624 1 5438ft 0kts
19-Feb-19 23:23 39.858255 -104.674624 1 5438ft 0kts
19-Feb-19 23:24 39.858255 -104.674624 1 5438ft 0kts
19-Feb-19 23:25 39.858255 -104.674624 1 5438ft 0kts

Navigation Log

Ident Type
Flight plan parsing failed, navigation log unavailable